createdAt,value
2023-03-08T00:01:28.338Z,10.43
2023-03-08T00:03:59.731Z,9.48
2023-03-08T00:06:29.421Z,9.30
2023-03-08T00:08:59.104Z,7.68
2023-03-08T00:11:26.713Z,10.02
2023-03-08T00:13:55.015Z,7.53
2023-03-08T00:16:22.338Z,8.77
2023-03-08T00:18:52.344Z,9.15
2023-03-08T00:21:22.433Z,9.98
2023-03-08T00:23:54.307Z,9.23
2023-03-08T00:26:21.651Z,9.68
2023-03-08T00:28:48.836Z,10.55
2023-03-08T00:31:15.942Z,10.40
2023-03-08T00:33:42.873Z,10.90
2023-03-08T00:36:22.240Z,9.07
2023-03-08T00:38:51.110Z,10.27
2023-03-08T00:41:21.213Z,9.23
2023-03-08T00:43:48.749Z,9.20
2023-03-08T00:46:16.115Z,8.18
2023-03-08T00:48:43.419Z,10.27
2023-03-08T00:51:16.034Z,10.65
2023-03-08T00:53:43.244Z,11.13
2023-03-08T00:56:13.081Z,10.00
2023-03-08T00:58:43.302Z,9.77
2023-03-08T01:01:18.932Z,9.68
2023-03-08T01:03:48.876Z,9.35
2023-03-08T01:06:16.360Z,12.60
2023-03-08T01:08:46.274Z,10.55
2023-03-08T01:11:20.861Z,10.25
2023-03-08T01:13:48.928Z,10.52
2023-03-08T01:16:28.292Z,9.32
2023-03-08T01:18:59.601Z,11.23
2023-03-08T01:21:28.802Z,9.50
2023-03-08T01:23:56.459Z,9.15
2023-03-08T01:26:26.562Z,11.85
2023-03-08T01:28:53.475Z,10.32
2023-03-08T01:31:29.502Z,10.57
2023-03-08T01:33:57.554Z,11.73
2023-03-08T01:36:27.866Z,11.63
2023-03-08T01:38:55.504Z,10.52
2023-03-08T01:41:29.397Z,10.05
2023-03-08T01:43:56.741Z,12.63
2023-03-08T01:46:35.233Z,11.55
2023-03-08T01:49:14.194Z,14.20
2023-03-08T01:51:52.270Z,10.60
2023-03-08T01:54:34.869Z,11.32
2023-03-08T01:57:33.628Z,11.20
2023-03-08T02:00:11.075Z,12.77
2023-03-08T02:02:48.229Z,12.98
2023-03-08T02:05:16.869Z,12.40
2023-03-08T02:07:43.791Z,12.55
2023-03-08T02:10:12.742Z,13.40
2023-03-08T02:12:40.986Z,11.52
2023-03-08T02:15:14.702Z,13.68
2023-03-08T02:17:42.652Z,10.88
2023-03-08T02:20:37.179Z,11.73
2023-03-08T02:23:18.320Z,15.00
2023-03-08T02:25:54.344Z,12.00
2023-03-08T02:28:26.739Z,11.82
2023-03-08T02:30:55.265Z,12.30
2023-03-08T02:33:22.470Z,13.75
2023-03-08T02:35:50.137Z,11.50
2023-03-08T02:38:21.158Z,14.75
2023-03-08T02:40:51.498Z,11.40
2023-03-08T02:43:21.211Z,10.82
2023-03-08T02:45:48.672Z,12.70
2023-03-08T02:48:16.331Z,14.18
2023-03-08T02:50:43.551Z,15.10
2023-03-08T02:53:15.064Z,15.20
2023-03-08T02:55:44.517Z,13.25
2023-03-08T02:58:17.033Z,12.80
2023-03-08T03:00:44.098Z,12.48
2023-03-08T03:03:11.121Z,12.90
2023-03-08T03:05:45.450Z,12.07
2023-03-08T03:08:14.755Z,11.05
2023-03-08T03:10:41.891Z,11.45
2023-03-08T03:13:09.014Z,12.65
2023-03-08T03:15:39.294Z,11.85
2023-03-08T03:18:06.311Z,12.18
2023-03-08T03:20:34.199Z,14.90
2023-03-08T03:23:01.415Z,12.57
2023-03-08T03:25:28.794Z,13.95
2023-03-08T03:27:56.681Z,14.00
2023-03-08T03:30:23.585Z,13.10
2023-03-08T03:32:50.631Z,14.75
2023-03-08T03:35:17.650Z,12.02
2023-03-08T03:37:44.489Z,13.23
2023-03-08T03:40:16.002Z,13.52
2023-03-08T03:45:10.578Z,10.98
2023-03-08T03:47:37.409Z,12.00
2023-03-08T03:50:07.550Z,13.18
2023-03-08T03:52:37.569Z,13.38
2023-03-08T03:55:08.111Z,11.25
2023-03-08T03:57:37.510Z,17.08
2023-03-08T04:00:07.194Z,17.75
2023-03-08T04:02:34.221Z,17.25
2023-03-08T04:05:03.589Z,15.52
2023-03-08T04:07:33.112Z,13.90
2023-03-08T04:10:00.442Z,15.10
2023-03-08T04:12:32.155Z,12.70
2023-03-08T04:15:01.170Z,13.75
2023-03-08T04:17:30.572Z,12.45
2023-03-08T04:20:00.551Z,12.88
2023-03-08T04:22:27.356Z,11.43
2023-03-08T04:24:56.623Z,11.27
2023-03-08T04:27:26.536Z,12.50
2023-03-08T04:29:55.808Z,12.50
2023-03-08T04:32:22.813Z,13.50
2023-03-08T04:34:49.675Z,13.15
2023-03-08T04:37:19.240Z,16.10
2023-03-08T04:39:47.847Z,13.68
2023-03-08T04:42:17.145Z,14.82
2023-03-08T04:44:44.040Z,13.40
2023-03-08T04:47:10.970Z,13.40
2023-03-08T04:49:40.481Z,13.48
2023-03-08T04:52:07.397Z,14.18
2023-03-08T04:54:34.321Z,14.48
2023-03-08T04:57:03.896Z,13.38
2023-03-08T04:59:33.295Z,14.45
2023-03-08T05:02:00.251Z,13.88
2023-03-08T05:04:29.434Z,13.20
2023-03-08T05:06:56.426Z,15.32
2023-03-08T05:09:26.359Z,13.07
2023-03-08T05:11:53.300Z,13.55
2023-03-08T05:14:21.763Z,16.00
2023-03-08T05:16:55.434Z,16.52
2023-03-08T05:19:22.330Z,15.38
2023-03-08T05:21:49.301Z,16.13
2023-03-08T05:24:16.159Z,14.45
2023-03-08T05:26:43.174Z,13.88
2023-03-08T05:29:10.174Z,13.57
2023-03-08T05:31:40.117Z,13.80
2023-03-08T05:34:12.431Z,13.65
2023-03-08T05:36:39.362Z,12.07
2023-03-08T05:39:08.356Z,13.63
2023-03-08T05:41:35.717Z,14.27
2023-03-08T05:44:02.728Z,13.63
2023-03-08T05:46:32.244Z,11.90
2023-03-08T05:48:59.134Z,14.27
2023-03-08T05:51:28.498Z,13.10
2023-03-08T05:53:55.465Z,14.15
2023-03-08T05:56:24.203Z,13.23
2023-03-08T05:58:54.488Z,14.05
2023-03-08T06:01:24.462Z,11.63
2023-03-08T06:03:54.473Z,14.80
2023-03-08T06:06:23.513Z,15.80
2023-03-08T06:08:54.003Z,15.63
2023-03-08T06:11:23.414Z,13.45
2023-03-08T06:13:52.511Z,11.43
2023-03-08T06:16:19.460Z,14.45
2023-03-08T06:18:48.986Z,13.40
2023-03-08T06:21:21.291Z,13.18
2023-03-08T06:23:50.621Z,15.02
2023-03-08T06:26:17.746Z,13.95
2023-03-08T06:28:47.003Z,11.68
2023-03-08T06:31:17.720Z,12.45
2023-03-08T06:33:44.883Z,12.77
2023-03-08T06:36:18.630Z,12.25
2023-03-08T06:38:48.602Z,12.77
2023-03-08T06:41:20.431Z,11.07
2023-03-08T06:43:51.209Z,10.27
2023-03-08T06:46:19.376Z,11.10
2023-03-08T06:48:51.370Z,12.88
2023-03-08T06:51:19.090Z,11.35
2023-03-08T06:53:47.350Z,9.35
2023-03-08T06:56:16.951Z,14.40
2023-03-08T06:58:44.301Z,11.52
2023-03-08T07:01:13.162Z,12.73
2023-03-08T07:03:44.394Z,14.35
2023-03-08T07:06:13.909Z,12.30
2023-03-08T07:08:41.321Z,12.07
2023-03-08T07:11:09.769Z,10.68
2023-03-08T07:13:38.421Z,12.55
2023-03-08T07:16:13.344Z,11.13
2023-03-08T07:18:41.323Z,9.35
2023-03-08T07:21:10.229Z,11.23
2023-03-08T07:23:37.267Z,11.38
2023-03-08T07:26:08.767Z,10.65
2023-03-08T07:28:40.537Z,10.68
2023-03-08T07:31:12.239Z,12.10
2023-03-08T07:33:39.292Z,10.48
2023-03-08T07:36:07.049Z,11.55
2023-03-08T07:38:34.081Z,11.48
2023-03-08T07:41:03.282Z,10.05
2023-03-08T07:43:30.203Z,11.73
2023-03-08T07:46:01.847Z,9.38
2023-03-08T07:51:07.374Z,7.25
2023-03-08T07:53:37.243Z,7.13
2023-03-08T07:56:08.791Z,9.23
2023-03-08T08:01:13.282Z,7.68
2023-03-08T08:03:43.288Z,9.18
2023-03-08T08:06:10.677Z,7.93
2023-03-08T08:08:37.579Z,6.68
2023-03-08T08:11:16.145Z,8.48
2023-03-08T08:13:48.140Z,8.50
2023-03-08T08:16:18.197Z,7.85
2023-03-08T08:18:45.416Z,9.25
2023-03-08T08:21:17.885Z,8.57
2023-03-08T08:23:50.569Z,8.77
2023-03-08T08:26:20.901Z,9.32
2023-03-08T08:28:52.886Z,7.57
2023-03-08T08:31:24.909Z,9.73
2023-03-08T08:33:55.226Z,7.13
2023-03-08T08:36:22.175Z,7.57
2023-03-08T08:38:52.103Z,7.65
2023-03-08T08:41:23.402Z,5.78
2023-03-08T08:43:58.930Z,8.20
2023-03-08T08:46:30.968Z,4.30
2023-03-08T08:49:01.098Z,8.32
2023-03-08T08:51:28.394Z,4.20
2023-03-08T08:53:55.965Z,4.65
2023-03-08T08:56:28.799Z,4.90
2023-03-08T08:59:05.440Z,4.93
2023-03-08T09:01:34.371Z,4.78
2023-03-08T09:04:01.346Z,6.30
2023-03-08T09:06:31.385Z,5.40
2023-03-08T09:08:59.653Z,3.20
2023-03-08T09:11:29.572Z,3.15
2023-03-08T09:13:57.317Z,3.38
2023-03-08T09:16:32.846Z,4.45
2023-03-08T09:19:04.382Z,3.08
2023-03-08T09:21:32.703Z,5.47
2023-03-08T09:24:09.859Z,2.90
2023-03-08T09:26:39.233Z,5.13
2023-03-08T09:29:08.679Z,2.47
2023-03-08T09:31:37.772Z,3.63
2023-03-08T09:34:09.534Z,2.65
2023-03-08T09:36:39.522Z,3.33
2023-03-08T09:39:09.024Z,3.20
2023-03-08T09:41:51.828Z,3.20
2023-03-08T09:45:08.187Z,3.22
2023-03-08T09:48:13.742Z,3.35
2023-03-08T09:50:45.814Z,2.78
2023-03-08T09:53:21.254Z,2.45
2023-03-08T09:55:58.794Z,2.97
2023-03-08T09:59:10.456Z,4.88
2023-03-08T10:02:15.520Z,3.15
2023-03-08T10:05:13.249Z,2.35
2023-03-08T10:07:52.439Z,3.65
2023-03-08T10:10:38.184Z,3.50
2023-03-08T10:13:26.171Z,2.72
2023-03-08T10:16:04.658Z,2.65
2023-03-08T10:18:50.829Z,3.53
2023-03-08T10:21:25.278Z,2.83
2023-03-08T10:24:06.765Z,3.03
2023-03-08T10:26:35.048Z,2.03
2023-03-08T10:29:01.968Z,2.92
2023-03-08T10:31:33.576Z,4.10
2023-03-08T10:36:53.540Z,2.95
2023-03-08T10:39:23.539Z,4.15
2023-03-08T10:42:12.663Z,3.05
2023-03-08T10:44:46.550Z,2.42
2023-03-08T10:47:21.088Z,4.43
2023-03-08T10:49:51.604Z,2.00
2023-03-08T10:52:28.425Z,2.28
2023-03-08T10:55:12.208Z,2.10
2023-03-08T10:57:44.080Z,2.60
2023-03-08T11:00:22.574Z,2.75
2023-03-08T11:03:23.280Z,3.58
2023-03-08T11:05:58.874Z,2.38
2023-03-08T11:08:34.796Z,2.08
2023-03-08T11:11:17.007Z,1.63
2023-03-08T11:13:46.963Z,1.88
2023-03-08T11:16:53.930Z,1.27
2023-03-08T11:19:51.071Z,1.55
2023-03-08T11:22:49.808Z,1.60
2023-03-08T11:25:25.958Z,2.05
2023-03-08T11:28:17.259Z,1.17
2023-03-08T11:30:47.042Z,1.60
2023-03-08T11:33:54.855Z,1.58
2023-03-08T11:36:50.983Z,1.45
2023-03-08T11:39:43.518Z,1.48
2023-03-08T11:42:47.168Z,1.65
2023-03-08T11:45:36.034Z,1.25
2023-03-08T11:48:20.862Z,2.10
2023-03-08T11:51:01.152Z,2.00
2023-03-08T11:54:08.123Z,1.13
2023-03-08T11:56:59.800Z,1.88
2023-03-08T11:59:41.863Z,1.17
2023-03-08T12:02:10.849Z,0.90
2023-03-08T12:04:52.174Z,0.90
2023-03-08T12:08:00.707Z,1.00
2023-03-08T12:10:58.027Z,1.10
2023-03-08T12:13:35.736Z,1.33
2023-03-08T12:16:24.122Z,0.88
2023-03-08T12:19:17.723Z,0.75
2023-03-08T12:22:20.908Z,1.02
2023-03-08T12:25:06.126Z,0.77
2023-03-08T12:28:24.448Z,0.60
2023-03-08T12:31:27.487Z,0.60
2023-03-08T12:34:00.032Z,0.80
2023-03-08T12:36:45.311Z,0.80
2023-03-08T12:39:36.337Z,0.77
2023-03-08T12:42:03.220Z,4.93
2023-03-08T12:44:32.676Z,1.00
2023-03-08T12:47:22.417Z,2.85
2023-03-08T12:50:08.784Z,0.50
2023-03-08T12:52:36.116Z,0.80
2023-03-08T12:55:27.028Z,0.45
2023-03-08T12:57:58.737Z,1.00
2023-03-08T13:00:34.618Z,0.93
2023-03-08T13:03:31.343Z,0.60
2023-03-08T13:06:00.429Z,0.30
2023-03-08T13:08:58.517Z,1.10
2023-03-08T13:11:40.641Z,0.30
2023-03-08T13:15:03.392Z,0.52
2023-03-08T13:17:33.083Z,0.88
2023-03-08T13:20:24.559Z,0.52
2023-03-08T13:23:10.734Z,1.00
2023-03-08T13:26:14.677Z,0.50
2023-03-08T13:28:47.982Z,0.30
2023-03-08T13:31:30.391Z,0.40
2023-03-08T13:34:01.240Z,0.90
2023-03-08T13:36:36.276Z,0.75
2023-03-08T13:39:21.200Z,0.65
2023-03-08T13:41:49.331Z,0.50
2023-03-08T13:44:23.428Z,1.52
2023-03-08T13:47:19.860Z,0.60
2023-03-08T13:49:52.847Z,0.70
2023-03-08T13:52:31.626Z,0.40
2023-03-08T13:55:02.882Z,0.40
2023-03-08T13:57:36.490Z,0.47
2023-03-08T14:00:31.539Z,0.30
2023-03-08T14:03:03.755Z,0.43
2023-03-08T14:05:43.075Z,0.40
2023-03-08T14:08:25.393Z,0.57
2023-03-08T14:11:04.780Z,1.05
2023-03-08T14:13:38.635Z,0.60
2023-03-08T14:16:24.223Z,0.50
2023-03-08T14:18:56.465Z,0.60
2023-03-08T14:21:30.313Z,0.55
2023-03-08T14:24:09.884Z,0.45
2023-03-08T14:26:43.202Z,0.57
2023-03-08T14:29:25.114Z,0.90
2023-03-08T14:32:05.448Z,0.85
2023-03-08T14:34:36.281Z,0.60
2023-03-08T14:37:16.205Z,1.20
2023-03-08T14:39:46.826Z,0.70
2023-03-08T14:42:27.925Z,0.65
2023-03-08T14:45:16.277Z,0.80
2023-03-08T14:47:58.227Z,0.50
2023-03-08T14:50:30.663Z,0.93
2023-03-08T14:53:00.870Z,1.00
2023-03-08T14:55:36.039Z,0.98
2023-03-08T14:58:13.245Z,0.85
2023-03-08T15:00:55.490Z,1.10
2023-03-08T15:03:27.333Z,0.88
2023-03-08T15:05:57.714Z,1.55
2023-03-08T15:08:28.419Z,1.67
2023-03-08T15:10:57.616Z,0.90
2023-03-08T15:13:29.132Z,0.55
2023-03-08T15:18:22.991Z,0.60
2023-03-08T15:20:54.828Z,0.70
2023-03-08T15:23:33.107Z,1.95
2023-03-08T15:26:03.965Z,1.15
2023-03-08T15:28:36.141Z,0.88
2023-03-08T15:31:07.720Z,1.42
2023-03-08T15:33:39.455Z,0.90
2023-03-08T15:38:35.868Z,1.00
2023-03-08T15:41:07.263Z,3.40
2023-03-08T15:43:34.239Z,1.73
2023-03-08T15:46:03.631Z,3.65
2023-03-08T15:48:30.643Z,2.95
2023-03-08T15:51:00.341Z,2.50
2023-03-08T15:53:35.759Z,1.70
2023-03-08T15:56:06.189Z,1.75
2023-03-08T15:58:35.172Z,1.60
2023-03-08T16:01:04.361Z,1.67
2023-03-08T16:03:38.295Z,1.88
2023-03-08T16:06:15.024Z,1.40
2023-03-08T16:08:44.427Z,2.30
2023-03-08T16:11:22.066Z,2.20
2023-03-08T16:13:53.274Z,2.03
2023-03-08T16:16:21.362Z,2.92
2023-03-08T16:18:48.864Z,3.38
2023-03-08T16:21:20.656Z,6.03
2023-03-08T16:26:17.635Z,2.78
2023-03-08T16:28:46.709Z,3.92
2023-03-08T16:31:15.735Z,2.95
2023-03-08T16:33:42.918Z,3.33
2023-03-08T16:36:13.998Z,10.68
2023-03-08T16:38:44.503Z,8.65
2023-03-08T16:41:14.703Z,6.32
2023-03-08T16:43:47.957Z,3.95
2023-03-08T16:46:23.188Z,3.53
2023-03-08T16:48:54.432Z,6.30
2023-03-08T16:51:25.543Z,3.92
2023-03-08T16:53:53.141Z,3.58
2023-03-08T16:56:28.825Z,3.70
2023-03-08T16:58:58.837Z,5.28
2023-03-08T17:01:26.428Z,6.57
2023-03-08T17:03:54.734Z,6.22
2023-03-08T17:06:26.186Z,10.30
2023-03-08T17:08:53.094Z,9.95
2023-03-08T17:11:28.981Z,5.18
2023-03-08T17:14:05.331Z,2.60
2023-03-08T17:16:33.268Z,1.95
2023-03-08T17:19:01.844Z,1.95
2023-03-08T17:21:31.255Z,3.85
2023-03-08T17:24:07.250Z,2.53
2023-03-08T17:26:39.265Z,2.22
2023-03-08T17:29:10.681Z,2.05
2023-03-08T17:31:41.050Z,2.58
2023-03-08T17:34:08.148Z,2.63
2023-03-08T17:36:35.165Z,1.95
2023-03-08T17:39:02.433Z,2.67
2023-03-08T17:41:29.415Z,5.18
2023-03-08T17:43:56.304Z,2.70
2023-03-08T17:46:27.706Z,2.05
2023-03-08T17:48:55.977Z,1.92
2023-03-08T17:51:26.924Z,2.75
2023-03-08T17:53:54.770Z,1.80
2023-03-08T17:56:26.505Z,1.50
2023-03-08T17:58:54.943Z,2.15
2023-03-08T18:01:25.895Z,7.95
2023-03-08T18:03:55.051Z,1.92
2023-03-08T18:06:41.573Z,10.73
2023-03-08T18:09:15.175Z,10.00
2023-03-08T18:11:49.058Z,5.72
2023-03-08T18:14:16.022Z,3.97
2023-03-08T18:16:44.827Z,2.28
2023-03-08T18:19:12.054Z,2.35
2023-03-08T18:21:41.858Z,2.30
2023-03-08T18:24:12.899Z,1.73
2023-03-08T18:26:39.824Z,1.33
2023-03-08T18:29:06.973Z,1.75
2023-03-08T18:31:37.214Z,5.05
2023-03-08T18:34:05.033Z,2.03
2023-03-08T18:36:32.434Z,1.40
2023-03-08T18:39:05.907Z,2.70
2023-03-08T18:41:35.228Z,2.95
2023-03-08T18:44:02.148Z,1.58
2023-03-08T18:46:31.226Z,1.58
2023-03-08T18:49:07.513Z,2.63
2023-03-08T18:51:39.372Z,1.77
2023-03-08T18:54:09.075Z,1.52
2023-03-08T18:56:38.725Z,2.55
2023-03-08T18:59:07.837Z,1.02
2023-03-08T19:01:37.401Z,2.05
2023-03-08T19:04:06.162Z,1.98
2023-03-08T19:06:34.498Z,2.08
2023-03-08T19:09:08.296Z,1.30
2023-03-08T19:11:37.762Z,1.10
2023-03-08T19:14:04.769Z,1.85
2023-03-08T19:16:37.333Z,1.35
2023-03-08T19:19:12.953Z,2.85
2023-03-08T19:21:43.815Z,2.50
2023-03-08T19:24:18.339Z,2.00
2023-03-08T19:26:53.259Z,1.90
2023-03-08T19:29:22.790Z,2.85
2023-03-08T19:31:53.562Z,2.05
2023-03-08T19:34:26.066Z,1.02
2023-03-08T19:36:53.629Z,3.60
2023-03-08T19:39:27.973Z,1.88
2023-03-08T19:42:03.411Z,1.52
2023-03-08T19:44:30.984Z,0.88
2023-03-08T19:47:01.434Z,1.33
2023-03-08T19:49:32.841Z,1.38
2023-03-08T19:52:03.620Z,1.98
2023-03-08T19:54:33.757Z,3.42
2023-03-08T19:57:01.614Z,2.45
2023-03-08T19:59:28.696Z,2.17
2023-03-08T20:01:56.138Z,1.60
2023-03-08T20:04:23.232Z,2.10
2023-03-08T20:06:59.614Z,0.98
2023-03-08T20:09:29.072Z,3.17
2023-03-08T20:12:02.933Z,2.33
2023-03-08T20:14:29.916Z,2.22
2023-03-08T20:16:59.111Z,2.78
2023-03-08T20:19:31.849Z,1.58
2023-03-08T20:21:58.985Z,2.58
2023-03-08T20:24:28.393Z,2.75
2023-03-08T20:26:59.961Z,2.05
2023-03-08T20:31:58.237Z,2.15
2023-03-08T20:34:30.821Z,1.55
2023-03-08T20:36:57.759Z,1.85
2023-03-08T20:39:26.875Z,1.60
2023-03-08T20:41:58.352Z,6.07
2023-03-08T20:44:28.210Z,2.60
2023-03-08T20:46:55.058Z,3.10
2023-03-08T20:49:26.297Z,4.20
2023-03-08T20:51:53.416Z,5.75
2023-03-08T20:54:20.766Z,6.65
2023-03-08T20:56:50.550Z,4.38
2023-03-08T20:59:23.116Z,5.72
2023-03-08T21:01:50.351Z,6.18
2023-03-08T21:04:17.268Z,8.27
2023-03-08T21:06:46.766Z,10.57
2023-03-08T21:09:16.328Z,9.82
2023-03-08T21:11:43.485Z,9.25
2023-03-08T21:14:13.180Z,8.90
2023-03-08T21:16:42.956Z,4.03
2023-03-08T21:19:10.273Z,3.25
2023-03-08T21:21:41.596Z,3.08
2023-03-08T21:24:18.979Z,1.88
2023-03-08T21:26:49.323Z,3.05
2023-03-08T21:29:20.053Z,1.95
2023-03-08T21:31:52.163Z,2.90
2023-03-08T21:34:22.647Z,2.00
2023-03-08T21:36:52.146Z,3.58
2023-03-08T21:39:22.708Z,2.40
2023-03-08T21:41:50.574Z,2.75
2023-03-08T21:44:22.234Z,3.20
2023-03-08T21:46:52.975Z,2.28
2023-03-08T21:49:27.771Z,1.77
2023-03-08T21:51:58.895Z,4.25
2023-03-08T21:54:32.818Z,3.78
2023-03-08T21:57:00.264Z,6.28
2023-03-08T21:59:28.871Z,5.00
2023-03-08T22:01:58.845Z,4.30
2023-03-08T22:04:31.356Z,5.05
2023-03-08T22:07:03.742Z,5.28
2023-03-08T22:09:35.249Z,3.58
2023-03-08T22:12:02.315Z,10.07
2023-03-08T22:14:33.300Z,5.43
2023-03-08T22:17:03.287Z,4.38
2023-03-08T22:19:32.595Z,4.30
2023-03-08T22:22:00.719Z,4.28
2023-03-08T22:24:32.097Z,3.60
2023-03-08T22:26:59.064Z,5.53
2023-03-08T22:29:25.949Z,5.03
2023-03-08T22:31:55.033Z,4.43
2023-03-08T22:34:24.217Z,4.75
2023-03-08T22:36:53.430Z,4.30
2023-03-08T22:39:20.310Z,4.13
2023-03-08T22:41:47.161Z,4.07
2023-03-08T22:44:15.041Z,3.47
2023-03-08T22:46:44.668Z,3.95
2023-03-08T22:49:16.078Z,2.55
2023-03-08T22:51:43.876Z,3.03
2023-03-08T22:54:22.250Z,4.70
2023-03-08T22:56:50.078Z,2.40
2023-03-08T22:59:17.583Z,2.47
2023-03-08T23:01:44.576Z,3.13
2023-03-08T23:04:13.836Z,3.03
2023-03-08T23:06:49.735Z,1.90
2023-03-08T23:09:17.134Z,2.45
2023-03-08T23:11:47.167Z,1.35
2023-03-08T23:14:16.583Z,2.53
2023-03-08T23:16:46.092Z,1.35
2023-03-08T23:19:19.792Z,1.73
2023-03-08T23:21:46.993Z,1.55
2023-03-08T23:24:17.685Z,2.33
2023-03-08T23:26:46.277Z,2.70
2023-03-08T23:29:16.322Z,1.45
2023-03-08T23:31:45.684Z,2.58
2023-03-08T23:34:13.164Z,1.25
2023-03-08T23:36:40.059Z,2.92
2023-03-08T23:39:07.224Z,1.13
2023-03-08T23:41:34.094Z,0.93
2023-03-08T23:44:02.141Z,1.40
2023-03-08T23:46:29.981Z,1.50
2023-03-08T23:49:01.146Z,0.93
2023-03-08T23:51:31.975Z,1.42
2023-03-08T23:54:00.721Z,3.50
2023-03-08T23:56:38.218Z,2.45
2023-03-08T23:59:13.094Z,1.60
